createdAt,value
2022-11-24T00:01:09.855Z,3.70
2022-11-24T00:03:36.854Z,2.78
2022-11-24T00:06:05.323Z,2.85
2022-11-24T00:08:31.982Z,2.95
2022-11-24T00:11:22.904Z,2.75
2022-11-24T00:13:50.494Z,2.60
2022-11-24T00:16:19.981Z,2.70
2022-11-24T00:18:48.122Z,2.97
2022-11-24T00:21:18.885Z,3.05
2022-11-24T00:23:46.075Z,3.08
2022-11-24T00:26:23.846Z,3.60
2022-11-24T00:28:52.478Z,3.30
2022-11-24T00:31:20.819Z,3.88
2022-11-24T00:33:48.610Z,3.38
2022-11-24T00:36:15.844Z,3.08
2022-11-24T00:38:42.763Z,3.65
2022-11-24T00:41:09.465Z,3.20
2022-11-24T00:43:36.148Z,2.88
2022-11-24T00:46:02.944Z,2.92
2022-11-24T00:48:30.698Z,3.50
2022-11-24T00:50:58.250Z,3.47
2022-11-24T00:53:25.400Z,3.00
2022-11-24T00:55:52.483Z,3.25
2022-11-24T00:58:19.416Z,4.00
2022-11-24T01:00:46.080Z,4.32
2022-11-24T01:03:13.781Z,3.28
2022-11-24T01:05:40.693Z,4.38
2022-11-24T01:08:07.754Z,3.38
2022-11-24T01:10:34.418Z,3.35
2022-11-24T01:13:01.248Z,2.92
2022-11-24T01:15:30.123Z,3.60
2022-11-24T01:17:57.474Z,3.45
2022-11-24T01:20:24.122Z,3.10
2022-11-24T01:22:50.774Z,3.20
2022-11-24T01:25:17.566Z,2.33
2022-11-24T01:27:44.244Z,3.45
2022-11-24T01:30:11.596Z,2.83
2022-11-24T01:32:38.321Z,2.78
2022-11-24T01:35:06.209Z,2.72
2022-11-24T01:37:33.124Z,2.65
2022-11-24T01:39:59.794Z,2.78
2022-11-24T01:42:26.451Z,3.17
2022-11-24T01:45:32.392Z,2.75
2022-11-24T01:48:00.848Z,2.63
2022-11-24T01:50:27.827Z,3.88
2022-11-24T01:52:55.546Z,2.72
2022-11-24T01:55:26.178Z,2.53
2022-11-24T01:58:08.217Z,2.47
2022-11-24T02:00:37.193Z,2.78
2022-11-24T02:03:04.515Z,2.95
2022-11-24T02:05:41.793Z,2.13
2022-11-24T02:08:51.458Z,2.78
2022-11-24T02:11:19.255Z,2.15
2022-11-24T02:13:46.846Z,2.67
2022-11-24T02:16:13.644Z,2.60
2022-11-24T02:18:41.398Z,3.10
2022-11-24T02:21:08.493Z,2.58
2022-11-24T02:23:49.982Z,2.70
2022-11-24T02:26:37.570Z,2.97
2022-11-24T02:29:04.312Z,2.63
2022-11-24T02:31:31.120Z,2.83
2022-11-24T02:33:58.271Z,2.80
2022-11-24T02:36:24.897Z,3.85
2022-11-24T02:38:51.537Z,2.42
2022-11-24T02:41:20.743Z,3.22
2022-11-24T02:43:53.401Z,3.47
2022-11-24T02:46:20.166Z,2.50
2022-11-24T02:48:46.933Z,2.90
2022-11-24T02:51:13.573Z,3.30
2022-11-24T02:53:40.210Z,3.28
2022-11-24T02:56:07.253Z,2.30
2022-11-24T02:58:33.867Z,2.83
2022-11-24T03:01:00.695Z,2.13
2022-11-24T03:03:27.605Z,2.97
2022-11-24T03:05:54.379Z,2.75
2022-11-24T03:08:21.127Z,2.70
2022-11-24T03:10:47.946Z,2.60
2022-11-24T03:13:14.712Z,2.58
2022-11-24T03:15:41.426Z,2.88
2022-11-24T03:18:08.235Z,2.58
2022-11-24T03:20:34.882Z,2.25
2022-11-24T03:23:01.577Z,2.58
2022-11-24T03:25:28.242Z,3.03
2022-11-24T03:27:58.189Z,3.10
2022-11-24T03:30:25.175Z,3.28
2022-11-24T03:32:53.620Z,3.53
2022-11-24T03:35:21.151Z,2.67
2022-11-24T03:37:47.898Z,3.58
2022-11-24T03:40:14.709Z,3.65
2022-11-24T03:42:41.394Z,2.47
2022-11-24T03:47:55.227Z,2.83
2022-11-24T03:50:21.829Z,3.22
2022-11-24T03:52:48.431Z,3.88
2022-11-24T03:55:15.191Z,4.82
2022-11-24T03:57:41.815Z,4.43
2022-11-24T04:00:09.449Z,3.42
2022-11-24T04:02:36.224Z,3.17
2022-11-24T04:05:02.892Z,3.63
2022-11-24T04:07:29.597Z,4.07
2022-11-24T04:09:56.323Z,3.42
2022-11-24T04:12:41.435Z,2.90
2022-11-24T04:15:08.595Z,2.78
2022-11-24T04:17:35.205Z,2.55
2022-11-24T04:20:02.014Z,2.80
2022-11-24T04:22:28.752Z,2.53
2022-11-24T04:24:55.347Z,2.42
2022-11-24T04:27:22.020Z,2.45
2022-11-24T04:29:48.815Z,2.17
2022-11-24T04:32:15.469Z,2.58
2022-11-24T04:34:42.110Z,3.17
2022-11-24T04:37:08.916Z,3.35
2022-11-24T04:39:35.643Z,5.05
2022-11-24T04:42:02.307Z,4.28
2022-11-24T04:44:28.946Z,5.32
2022-11-24T04:46:55.707Z,4.68
2022-11-24T04:49:22.408Z,4.38
2022-11-24T04:51:48.988Z,3.63
2022-11-24T04:54:16.009Z,3.20
2022-11-24T04:56:43.846Z,2.15
2022-11-24T04:59:15.008Z,3.15
2022-11-24T05:01:46.255Z,3.47
2022-11-24T05:04:14.534Z,3.58
2022-11-24T05:06:41.228Z,3.38
2022-11-24T05:09:08.063Z,2.75
2022-11-24T05:11:34.732Z,2.85
2022-11-24T05:14:01.900Z,3.38
2022-11-24T05:16:28.561Z,3.65
2022-11-24T05:18:55.187Z,2.95
2022-11-24T05:21:21.870Z,3.08
2022-11-24T05:23:48.545Z,2.80
2022-11-24T05:26:15.220Z,3.13
2022-11-24T05:28:41.871Z,3.58
2022-11-24T05:31:08.637Z,4.32
2022-11-24T05:33:35.280Z,3.20
2022-11-24T05:36:03.962Z,3.10
2022-11-24T05:38:31.066Z,3.63
2022-11-24T05:41:04.291Z,4.00
2022-11-24T05:43:31.041Z,4.10
2022-11-24T05:46:01.401Z,3.60
2022-11-24T05:48:28.065Z,2.80
2022-11-24T05:50:56.030Z,2.90
2022-11-24T05:53:23.173Z,3.30
2022-11-24T05:55:49.902Z,3.97
2022-11-24T05:58:16.701Z,3.08
2022-11-24T06:00:43.426Z,2.92
2022-11-24T06:03:11.514Z,3.60
2022-11-24T06:05:38.286Z,2.80
2022-11-24T06:08:05.200Z,3.10
2022-11-24T06:10:31.920Z,4.15
2022-11-24T06:12:58.526Z,3.63
2022-11-24T06:15:25.145Z,3.80
2022-11-24T06:17:55.705Z,3.65
2022-11-24T06:20:25.981Z,3.50
2022-11-24T06:22:57.870Z,3.40
2022-11-24T06:25:24.666Z,3.65
2022-11-24T06:27:51.272Z,3.13
2022-11-24T06:30:18.078Z,4.22
2022-11-24T06:32:49.293Z,3.35
2022-11-24T06:35:16.462Z,3.70
2022-11-24T06:37:43.113Z,3.70
2022-11-24T06:40:10.198Z,5.03
2022-11-24T06:42:37.305Z,3.20
2022-11-24T06:45:09.128Z,4.13
2022-11-24T06:47:36.694Z,3.60
2022-11-24T06:50:03.707Z,3.95
2022-11-24T06:52:30.594Z,3.67
2022-11-24T06:54:59.339Z,4.28
2022-11-24T06:57:27.454Z,3.83
2022-11-24T06:59:54.115Z,2.97
2022-11-24T07:02:23.593Z,3.53
2022-11-24T07:04:50.287Z,3.38
2022-11-24T07:07:17.036Z,3.80
2022-11-24T07:09:43.743Z,4.07
2022-11-24T07:12:10.375Z,3.40
2022-11-24T07:14:37.384Z,3.95
2022-11-24T07:17:04.803Z,4.40
2022-11-24T07:19:31.860Z,3.35
2022-11-24T07:21:58.921Z,4.22
2022-11-24T07:24:25.545Z,3.58
2022-11-24T07:26:52.506Z,2.80
2022-11-24T07:29:19.081Z,2.15
2022-11-24T07:31:46.187Z,2.88
2022-11-24T07:34:14.664Z,2.80
2022-11-24T07:36:41.873Z,2.95
2022-11-24T07:39:08.537Z,3.10
2022-11-24T07:41:35.204Z,3.17
2022-11-24T07:44:01.824Z,3.38
2022-11-24T07:46:28.467Z,3.50
2022-11-24T07:48:55.204Z,2.78
2022-11-24T07:51:21.805Z,3.22
2022-11-24T07:53:48.417Z,2.72
2022-11-24T07:56:15.117Z,2.92
2022-11-24T07:58:41.865Z,2.78
2022-11-24T08:01:12.869Z,2.95
2022-11-24T08:03:39.792Z,2.58
2022-11-24T08:08:53.538Z,2.33
2022-11-24T08:11:20.262Z,2.28
2022-11-24T08:13:46.989Z,2.58
2022-11-24T08:16:16.060Z,2.17
2022-11-24T08:18:43.130Z,2.42
2022-11-24T08:21:14.210Z,2.30
2022-11-24T08:23:41.248Z,2.42
2022-11-24T08:26:11.379Z,2.20
2022-11-24T08:28:38.246Z,1.90
2022-11-24T08:31:13.304Z,1.85
2022-11-24T08:33:40.711Z,2.53
2022-11-24T08:36:12.636Z,2.58
2022-11-24T08:38:39.265Z,2.20
2022-11-24T08:41:08.792Z,1.60
2022-11-24T08:43:35.817Z,1.95
2022-11-24T08:46:07.736Z,1.40
2022-11-24T08:48:34.999Z,1.60
2022-11-24T08:51:13.296Z,1.80
2022-11-24T08:53:42.970Z,1.75
2022-11-24T08:56:10.686Z,1.92
2022-11-24T08:58:38.168Z,1.83
2022-11-24T09:01:04.960Z,1.73
2022-11-24T09:03:31.766Z,1.48
2022-11-24T09:05:58.420Z,1.10
2022-11-24T09:08:25.052Z,1.77
2022-11-24T09:10:51.667Z,1.50
2022-11-24T09:13:18.317Z,1.50
2022-11-24T09:15:44.939Z,1.50
2022-11-24T09:18:11.520Z,1.77
2022-11-24T09:20:38.242Z,1.77
2022-11-24T09:23:04.895Z,1.98
2022-11-24T09:25:31.614Z,1.60
2022-11-24T09:27:59.982Z,1.60
2022-11-24T09:30:26.934Z,1.73
2022-11-24T09:32:56.491Z,1.70
2022-11-24T09:35:23.254Z,1.60
2022-11-24T09:37:50.173Z,1.63
2022-11-24T09:40:17.247Z,1.73
2022-11-24T09:43:12.994Z,1.70
2022-11-24T09:46:04.915Z,2.20
2022-11-24T09:48:44.008Z,2.10
2022-11-24T09:51:13.143Z,2.00
2022-11-24T09:53:56.881Z,2.15
2022-11-24T09:56:26.577Z,2.00
2022-11-24T09:59:10.643Z,1.80
2022-11-24T10:01:41.099Z,2.15
2022-11-24T10:04:30.501Z,2.60
2022-11-24T10:07:12.516Z,1.98
2022-11-24T10:09:56.956Z,2.63
2022-11-24T10:12:49.371Z,1.92
2022-11-24T10:16:13.393Z,2.60
2022-11-24T10:19:47.799Z,2.45
2022-11-24T10:22:35.749Z,2.50
2022-11-24T10:25:25.939Z,2.00
2022-11-24T10:27:59.865Z,1.88
2022-11-24T10:30:26.503Z,2.13
2022-11-24T10:32:58.823Z,2.80
2022-11-24T10:35:35.209Z,2.90
2022-11-24T10:38:32.311Z,2.40
2022-11-24T10:41:06.427Z,2.90
2022-11-24T10:43:33.284Z,3.15
2022-11-24T10:46:10.052Z,2.88
2022-11-24T10:48:49.881Z,2.88
2022-11-24T10:52:06.027Z,2.90
2022-11-24T10:54:33.290Z,3.03
2022-11-24T10:56:59.953Z,3.10
2022-11-24T10:59:32.069Z,3.42
2022-11-24T11:01:59.296Z,3.88
2022-11-24T11:04:29.493Z,4.20
2022-11-24T11:07:14.575Z,4.13
2022-11-24T11:09:41.210Z,3.83
2022-11-24T11:12:46.616Z,3.88
2022-11-24T11:15:31.171Z,3.13
2022-11-24T11:18:00.262Z,3.92
2022-11-24T11:20:33.612Z,3.70
2022-11-24T11:23:13.669Z,3.33
2022-11-24T11:25:41.173Z,3.40
2022-11-24T11:28:18.709Z,3.17
2022-11-24T11:31:22.615Z,3.38
2022-11-24T11:34:26.782Z,3.35
2022-11-24T11:36:57.282Z,2.88
2022-11-24T11:39:35.874Z,3.38
2022-11-24T11:45:31.429Z,3.45
2022-11-24T11:48:18.238Z,3.40
2022-11-24T11:53:45.117Z,3.15
2022-11-24T11:56:28.546Z,4.00
2022-11-24T11:58:55.200Z,2.88
2022-11-24T12:01:30.652Z,3.65
2022-11-24T12:04:03.845Z,3.25
2022-11-24T12:06:37.758Z,3.85
2022-11-24T12:09:41.973Z,3.50
2022-11-24T12:12:14.530Z,3.13
2022-11-24T12:15:00.006Z,3.72
2022-11-24T12:17:29.436Z,3.47
2022-11-24T12:20:25.383Z,3.50
2022-11-24T12:23:22.048Z,1.50
2022-11-24T12:26:01.440Z,3.45
2022-11-24T12:28:51.047Z,3.55
2022-11-24T12:31:27.247Z,3.22
2022-11-24T12:34:23.323Z,3.58
2022-11-24T12:37:07.543Z,3.20
2022-11-24T12:39:35.597Z,3.10
2022-11-24T12:42:34.740Z,3.45
2022-11-24T12:45:14.400Z,3.15
2022-11-24T12:47:50.265Z,2.60
2022-11-24T12:50:22.547Z,3.17
2022-11-24T12:53:07.756Z,2.67
2022-11-24T12:55:34.446Z,3.67
2022-11-24T12:58:35.141Z,3.60
2022-11-24T13:01:36.082Z,2.90
2022-11-24T13:04:02.817Z,2.50
2022-11-24T13:06:49.311Z,2.90
2022-11-24T13:09:16.498Z,2.88
2022-11-24T13:11:48.085Z,3.63
2022-11-24T13:14:22.225Z,3.30
2022-11-24T13:19:42.481Z,3.30
2022-11-24T13:22:15.720Z,3.33
2022-11-24T13:24:45.150Z,3.85
2022-11-24T13:27:24.450Z,3.22
2022-11-24T13:29:52.176Z,3.30
2022-11-24T13:32:18.855Z,3.00
2022-11-24T13:34:45.801Z,3.70
2022-11-24T13:37:29.044Z,2.70
2022-11-24T13:40:14.803Z,3.60
2022-11-24T13:43:02.607Z,2.80
2022-11-24T13:45:49.771Z,3.33
2022-11-24T13:48:19.868Z,3.30
2022-11-24T13:50:50.427Z,3.00
2022-11-24T13:53:17.222Z,2.55
2022-11-24T13:55:58.743Z,2.92
2022-11-24T13:58:36.513Z,2.47
2022-11-24T14:01:22.431Z,2.35
2022-11-24T14:04:29.339Z,3.17
2022-11-24T14:06:55.887Z,3.28
2022-11-24T14:09:37.390Z,3.55
2022-11-24T14:12:10.033Z,2.65
2022-11-24T14:14:36.892Z,4.90
2022-11-24T14:17:23.414Z,2.58
2022-11-24T14:19:52.808Z,3.75
2022-11-24T14:22:28.161Z,3.70
2022-11-24T14:24:56.226Z,3.10
2022-11-24T14:27:31.434Z,3.53
2022-11-24T14:30:18.893Z,3.83
2022-11-24T14:32:58.851Z,2.92
2022-11-24T14:35:25.560Z,2.83
2022-11-24T14:37:54.510Z,3.08
2022-11-24T14:40:43.414Z,2.60
2022-11-24T14:43:29.812Z,2.88
2022-11-24T14:46:02.328Z,3.53
2022-11-24T14:48:32.614Z,3.10
2022-11-24T14:51:08.689Z,3.53
2022-11-24T14:53:35.802Z,4.53
2022-11-24T14:56:32.761Z,3.65
2022-11-24T14:58:59.619Z,3.85
2022-11-24T15:01:29.629Z,3.20
2022-11-24T15:04:39.044Z,2.78
2022-11-24T15:07:18.732Z,2.72
2022-11-24T15:09:48.328Z,3.17
2022-11-24T15:12:36.775Z,2.80
2022-11-24T15:15:15.892Z,2.88
2022-11-24T15:17:51.357Z,3.50
2022-11-24T15:20:42.402Z,3.45
2022-11-24T15:23:35.704Z,3.78
2022-11-24T15:26:02.303Z,3.30
2022-11-24T15:28:32.502Z,4.00
2022-11-24T15:31:05.458Z,3.88
2022-11-24T15:33:32.608Z,4.20
2022-11-24T15:35:59.785Z,3.42
2022-11-24T15:38:26.489Z,3.45
2022-11-24T15:40:55.231Z,4.00
2022-11-24T15:43:33.936Z,3.90
2022-11-24T15:46:02.102Z,3.47
2022-11-24T15:48:32.294Z,3.78
2022-11-24T15:51:01.662Z,5.35
2022-11-24T15:53:46.061Z,6.28
2022-11-24T15:56:16.139Z,5.45
2022-11-24T15:58:42.749Z,5.30
2022-11-24T16:01:09.423Z,4.45
2022-11-24T16:03:47.028Z,4.93
2022-11-24T16:06:24.527Z,5.43
2022-11-24T16:08:55.431Z,4.45
2022-11-24T16:11:22.875Z,4.53
2022-11-24T16:13:53.361Z,5.53
2022-11-24T16:16:21.786Z,4.70
2022-11-24T16:18:48.618Z,4.80
2022-11-24T16:21:15.361Z,5.57
2022-11-24T16:23:42.113Z,6.00
2022-11-24T16:26:10.094Z,5.70
2022-11-24T16:28:38.102Z,6.38
2022-11-24T16:31:04.860Z,7.95
2022-11-24T16:33:31.586Z,8.15
2022-11-24T16:35:58.700Z,10.55
2022-11-24T16:38:25.421Z,9.95
2022-11-24T16:40:53.969Z,8.68
2022-11-24T16:43:21.518Z,8.45
2022-11-24T16:46:19.488Z,7.05
2022-11-24T16:48:47.385Z,7.15
2022-11-24T16:51:16.395Z,5.88
2022-11-24T16:53:44.927Z,5.50
2022-11-24T16:56:11.971Z,5.93
2022-11-24T16:58:40.316Z,6.28
2022-11-24T17:01:09.152Z,5.75
2022-11-24T17:03:37.387Z,6.63
2022-11-24T17:06:08.929Z,5.93
2022-11-24T17:08:37.238Z,5.57
2022-11-24T17:11:10.964Z,5.60
2022-11-24T17:13:38.931Z,6.75
2022-11-24T17:16:11.582Z,6.57
2022-11-24T17:18:39.021Z,6.43
2022-11-24T17:21:09.851Z,6.53
2022-11-24T17:23:37.100Z,6.40
2022-11-24T17:26:20.583Z,7.15
2022-11-24T17:28:50.032Z,7.88
2022-11-24T17:31:25.005Z,6.65
2022-11-24T17:33:53.677Z,6.88
2022-11-24T17:36:20.461Z,7.18
2022-11-24T17:38:50.597Z,9.27
2022-11-24T17:41:17.967Z,7.57
2022-11-24T17:43:51.642Z,7.65
2022-11-24T17:46:18.363Z,6.68
2022-11-24T17:48:45.263Z,6.85
2022-11-24T17:51:13.671Z,6.07
2022-11-24T17:53:42.111Z,6.28
2022-11-24T17:56:12.504Z,6.03
2022-11-24T17:58:42.913Z,5.78
2022-11-24T18:01:10.650Z,5.35
2022-11-24T18:03:39.275Z,6.05
2022-11-24T18:06:13.752Z,5.57
2022-11-24T18:08:42.899Z,5.97
2022-11-24T18:11:10.585Z,7.28
2022-11-24T18:16:24.547Z,6.75
2022-11-24T18:19:07.441Z,6.50
2022-11-24T18:21:37.917Z,7.00
2022-11-24T18:24:04.802Z,6.75
2022-11-24T18:26:31.489Z,6.13
2022-11-24T18:28:58.159Z,6.57
2022-11-24T18:31:26.341Z,5.72
2022-11-24T18:33:53.167Z,5.93
2022-11-24T18:36:23.566Z,6.30
2022-11-24T18:38:53.876Z,5.80
2022-11-24T18:41:21.586Z,5.55
2022-11-24T18:43:48.275Z,5.50
2022-11-24T18:46:17.389Z,5.05
2022-11-24T18:48:45.270Z,5.95
2022-11-24T18:51:15.804Z,4.57
2022-11-24T18:53:43.868Z,4.95
2022-11-24T18:56:20.572Z,6.22
2022-11-24T18:58:48.347Z,6.07
2022-11-24T19:01:21.080Z,6.68
2022-11-24T19:03:49.754Z,7.40
2022-11-24T19:06:23.853Z,5.10
2022-11-24T19:08:53.264Z,5.43
2022-11-24T19:11:28.253Z,4.95
2022-11-24T19:13:58.766Z,4.13
2022-11-24T19:16:25.524Z,3.55
2022-11-24T19:18:54.240Z,3.80
2022-11-24T19:21:22.711Z,3.92
2022-11-24T19:23:50.322Z,3.38
2022-11-24T19:26:17.420Z,3.65
2022-11-24T19:28:44.560Z,3.45
2022-11-24T19:31:13.064Z,3.30
2022-11-24T19:33:40.965Z,3.88
2022-11-24T19:36:19.050Z,3.65
2022-11-24T19:38:59.161Z,3.90
2022-11-24T19:41:31.430Z,5.30
2022-11-24T19:43:59.097Z,7.93
2022-11-24T19:46:27.875Z,6.63
2022-11-24T19:49:12.002Z,5.38
2022-11-24T19:51:39.519Z,3.65
2022-11-24T19:54:08.172Z,3.83
2022-11-24T19:56:36.421Z,3.45
2022-11-24T19:59:07.246Z,2.90
2022-11-24T20:01:37.396Z,3.75
2022-11-24T20:04:08.741Z,3.08
2022-11-24T20:06:37.866Z,3.50
2022-11-24T20:09:06.620Z,3.72
2022-11-24T20:11:35.321Z,4.05
2022-11-24T20:14:03.524Z,4.95
2022-11-24T20:16:31.508Z,4.00
2022-11-24T20:19:08.514Z,5.78
2022-11-24T20:21:36.558Z,5.45
2022-11-24T20:24:04.349Z,4.57
2022-11-24T20:26:33.722Z,3.35
2022-11-24T20:29:01.010Z,3.90
2022-11-24T20:31:31.990Z,3.38
2022-11-24T20:34:00.624Z,4.22
2022-11-24T20:36:29.852Z,3.53
2022-11-24T20:38:58.209Z,3.10
2022-11-24T20:41:27.362Z,3.47
2022-11-24T20:44:00.738Z,3.70
2022-11-24T20:46:32.697Z,4.03
2022-11-24T20:49:00.070Z,4.15
2022-11-24T20:51:29.580Z,4.80
2022-11-24T20:53:58.694Z,5.40
2022-11-24T20:56:31.075Z,5.00
2022-11-24T20:58:58.211Z,4.55
2022-11-24T21:01:28.353Z,5.03
2022-11-24T21:03:57.141Z,4.20
2022-11-24T21:06:24.490Z,4.03
2022-11-24T21:08:53.070Z,3.60
2022-11-24T21:11:22.270Z,3.70
2022-11-24T21:13:50.008Z,3.85
2022-11-24T21:16:38.104Z,3.90
2022-11-24T21:19:07.306Z,3.05
2022-11-24T21:21:35.934Z,3.45
2022-11-24T21:24:27.440Z,2.83
2022-11-24T21:26:54.237Z,3.63
2022-11-24T21:29:23.766Z,3.95
2022-11-24T21:31:50.723Z,3.42
2022-11-24T21:34:18.940Z,3.08
2022-11-24T21:36:48.266Z,3.70
2022-11-24T21:39:18.004Z,3.22
2022-11-24T21:41:44.738Z,3.60
2022-11-24T21:44:14.890Z,2.92
2022-11-24T21:46:49.508Z,3.13
2022-11-24T21:49:21.035Z,3.33
2022-11-24T21:51:47.815Z,3.28
2022-11-24T21:54:14.436Z,3.55
2022-11-24T21:56:41.080Z,3.65
2022-11-24T21:59:07.813Z,4.13
2022-11-24T22:01:34.576Z,3.78
2022-11-24T22:04:01.754Z,4.63
2022-11-24T22:06:28.539Z,4.00
2022-11-24T22:08:55.300Z,3.80
2022-11-24T22:11:23.821Z,4.10
2022-11-24T22:13:50.821Z,4.05
2022-11-24T22:16:19.492Z,4.05
2022-11-24T22:18:46.621Z,4.25
2022-11-24T22:21:16.198Z,4.40
2022-11-24T22:23:44.734Z,4.00
2022-11-24T22:26:17.079Z,4.30
2022-11-24T22:28:45.017Z,4.80
2022-11-24T22:31:34.946Z,4.32
2022-11-24T22:34:01.652Z,3.53
2022-11-24T22:36:29.965Z,3.75
2022-11-24T22:39:03.658Z,3.85
2022-11-24T22:41:31.930Z,3.60
2022-11-24T22:43:59.006Z,3.53
2022-11-24T22:46:27.193Z,3.20
2022-11-24T22:48:54.984Z,3.05
2022-11-24T22:51:24.335Z,3.10
2022-11-24T22:54:02.198Z,3.28
2022-11-24T22:56:30.380Z,2.63
2022-11-24T22:58:57.951Z,3.55
2022-11-24T23:01:25.449Z,3.80
2022-11-24T23:03:54.472Z,3.28
2022-11-24T23:06:26.124Z,3.33
2022-11-24T23:08:53.445Z,3.33
2022-11-24T23:11:31.582Z,3.35
2022-11-24T23:14:03.393Z,2.60
2022-11-24T23:16:30.953Z,2.72
2022-11-24T23:18:58.566Z,2.65
2022-11-24T23:21:30.201Z,2.53
2022-11-24T23:23:59.332Z,2.88
2022-11-24T23:26:28.207Z,3.63
2022-11-24T23:28:54.819Z,3.08
2022-11-24T23:31:27.229Z,3.10
2022-11-24T23:33:54.715Z,2.92
2022-11-24T23:36:21.622Z,3.08
2022-11-24T23:38:49.474Z,2.50
2022-11-24T23:41:20.447Z,3.45
2022-11-24T23:43:47.276Z,3.15
2022-11-24T23:46:20.457Z,2.97
2022-11-24T23:48:47.499Z,4.05
2022-11-24T23:51:19.172Z,3.10
2022-11-24T23:53:46.288Z,2.78
2022-11-24T23:56:15.291Z,3.38
2022-11-24T23:58:42.109Z,2.67
